LFPB/LBG METAR and TAF weather

Enter ICAO airport designator
Station Type Date Time Source
LFPB METAR 2020/07/13 15:30 UTC NOAA

LFPB 131530Z AUTO VRB04KT CAVOK 27/05 Q1020 NOSIG


Station Type Date Time Source
LFPB Decoded METAR 2020/07/13 15:30 UTC NOAA

Paris / Le Bourget, France (LFPB) 48-58N 002-27E 65M
Jul 13, 2020 - 11:30 AM EDT / 2020.07.13 1530 UTC
Wind: Variable at 5 MPH (4 KT):0
Visibility: greater than 7 mile(s):0
Temperature: 80 F (27 C)
Dew Point: 41 F (5 C)
Relative Humidity: 24%
Pressure (altimeter): 30.12 in. Hg (1020 hPa)
ob: LFPB 131530Z AUTO VRB04KT CAVOK 27/05 Q1020 NOSIG
cycle: 15

Station Type Date Time Source
LFPB TAF 2020/07/13 12:42 UTC NOAA

TAF LFPB 131100Z 1312/1412 35010KT CAVOK

Example: see airport list